sensor_id;sensor_type;location;lat;lon;timestamp;P1;durP1;ratioP1;P2;durP2;ratioP2
21611;SDS011;47005;52.292;13.452;2024-01-15T00:01:55;5.63;;;3.73;;
21611;SDS011;47005;52.292;13.452;2024-01-15T00:04:21;6.60;;;3.87;;
21611;SDS011;47005;52.292;13.452;2024-01-15T00:06:46;5.77;;;3.97;;
21611;SDS011;47005;52.292;13.452;2024-01-15T00:09:12;7.33;;;4.70;;
21611;SDS011;47005;52.292;13.452;2024-01-15T00:11:38;4.87;;;3.30;;
21611;SDS011;47005;52.292;13.452;2024-01-15T00:14:03;8.60;;;4.53;;
21611;SDS011;47005;52.292;13.452;2024-01-15T00:16:29;7.60;;;4.43;;
21611;SDS011;47005;52.292;13.452;2024-01-15T00:18:55;3.43;;;1.50;;
21611;SDS011;47005;52.292;13.452;2024-01-15T00:21:20;1.93;;;1.47;;
21611;SDS011;47005;52.292;13.452;2024-01-15T00:23:46;5.10;;;2.53;;
21611;SDS011;47005;52.292;13.452;2024-01-15T00:26:11;4.83;;;3.20;;
21611;SDS011;47005;52.292;13.452;2024-01-15T00:28:38;10.77;;;4.07;;
21611;SDS011;47005;52.292;13.452;2024-01-15T00:31:06;7.87;;;3.70;;
21611;SDS011;47005;52.292;13.452;2024-01-15T00:33:32;8.87;;;5.10;;
21611;SDS011;47005;52.292;13.452;2024-01-15T00:35:58;6.13;;;3.80;;
21611;SDS011;47005;52.292;13.452;2024-01-15T00:38:23;3.37;;;1.60;;
21611;SDS011;47005;52.292;13.452;2024-01-15T00:40:49;6.17;;;4.20;;
21611;SDS011;47005;52.292;13.452;2024-01-15T00:43:15;7.27;;;4.30;;
21611;SDS011;47005;52.292;13.452;2024-01-15T00:45:43;9.20;;;4.47;;
21611;SDS011;47005;52.292;13.452;2024-01-15T00:48:08;7.77;;;4.77;;
21611;SDS011;47005;52.292;13.452;2024-01-15T00:50:34;7.60;;;4.80;;
21611;SDS011;47005;52.292;13.452;2024-01-15T00:53:00;6.67;;;4.47;;
21611;SDS011;47005;52.292;13.452;2024-01-15T00:55:25;7.37;;;4.30;;
21611;SDS011;47005;52.292;13.452;2024-01-15T00:57:52;6.80;;;3.57;;
21611;SDS011;47005;52.292;13.452;2024-01-15T01:00:17;3.37;;;2.83;;
21611;SDS011;47005;52.292;13.452;2024-01-15T01:02:43;3.03;;;1.83;;
21611;SDS011;47005;52.292;13.452;2024-01-15T01:05:09;8.87;;;5.00;;
21611;SDS011;47005;52.292;13.452;2024-01-15T01:07:34;9.23;;;5.10;;
21611;SDS011;47005;52.292;13.452;2024-01-15T01:10:00;7.37;;;4.40;;
21611;SDS011;47005;52.292;13.452;2024-01-15T01:12:26;3.37;;;1.97;;
21611;SDS011;47005;52.292;13.452;2024-01-15T01:14:52;9.43;;;4.63;;
21611;SDS011;47005;52.292;13.452;2024-01-15T01:17:18;7.60;;;4.60;;
21611;SDS011;47005;52.292;13.452;2024-01-15T01:19:43;4.73;;;2.73;;
21611;SDS011;47005;52.292;13.452;2024-01-15T01:22:09;4.23;;;2.67;;
21611;SDS011;47005;52.292;13.452;2024-01-15T01:24:34;7.33;;;3.70;;
21611;SDS011;47005;52.292;13.452;2024-01-15T01:27:00;7.63;;;4.63;;
21611;SDS011;47005;52.292;13.452;2024-01-15T01:29:26;5.90;;;3.60;;
21611;SDS011;47005;52.292;13.452;2024-01-15T01:31:52;1.33;;;1.23;;
21611;SDS011;47005;52.292;13.452;2024-01-15T01:34:17;4.87;;;3.07;;
21611;SDS011;47005;52.292;13.452;2024-01-15T01:36:43;11.37;;;6.07;;
21611;SDS011;47005;52.292;13.452;2024-01-15T01:39:08;10.50;;;6.03;;
21611;SDS011;47005;52.292;13.452;2024-01-15T01:41:35;8.83;;;5.40;;
21611;SDS011;47005;52.292;13.452;2024-01-15T01:44:00;9.73;;;5.93;;
21611;SDS011;47005;52.292;13.452;2024-01-15T01:46:27;6.83;;;3.73;;
21611;SDS011;47005;52.292;13.452;2024-01-15T01:48:53;6.37;;;3.97;;
21611;SDS011;47005;52.292;13.452;2024-01-15T01:51:21;9.13;;;5.00;;
21611;SDS011;47005;52.292;13.452;2024-01-15T01:53:48;10.47;;;6.23;;
21611;SDS011;47005;52.292;13.452;2024-01-15T01:56:16;5.13;;;2.87;;
21611;SDS011;47005;52.292;13.452;2024-01-15T01:58:43;7.23;;;4.87;;
21611;SDS011;47005;52.292;13.452;2024-01-15T02:01:10;9.20;;;4.63;;
21611;SDS011;47005;52.292;13.452;2024-01-15T02:03:37;5.73;;;3.40;;
21611;SDS011;47005;52.292;13.452;2024-01-15T02:06:05;7.57;;;4.93;;
21611;SDS011;47005;52.292;13.452;2024-01-15T02:08:30;8.07;;;5.13;;
21611;SDS011;47005;52.292;13.452;2024-01-15T02:10:56;7.03;;;3.63;;
21611;SDS011;47005;52.292;13.452;2024-01-15T02:13:22;6.73;;;4.13;;
21611;SDS011;47005;52.292;13.452;2024-01-15T02:15:48;9.73;;;5.53;;
21611;SDS011;47005;52.292;13.452;2024-01-15T02:18:13;6.77;;;3.47;;
21611;SDS011;47005;52.292;13.452;2024-01-15T02:20:39;5.57;;;3.40;;
21611;SDS011;47005;52.292;13.452;2024-01-15T02:23:11;11.03;;;5.20;;
21611;SDS011;47005;52.292;13.452;2024-01-15T02:25:39;4.63;;;3.10;;
21611;SDS011;47005;52.292;13.452;2024-01-15T02:28:06;5.80;;;3.53;;
21611;SDS011;47005;52.292;13.452;2024-01-15T02:30:34;7.43;;;4.60;;
21611;SDS011;47005;52.292;13.452;2024-01-15T02:33:06;5.73;;;2.93;;
21611;SDS011;47005;52.292;13.452;2024-01-15T02:35:32;6.67;;;3.83;;
21611;SDS011;47005;52.292;13.452;2024-01-15T02:37:58;8.10;;;5.23;;
21611;SDS011;47005;52.292;13.452;2024-01-15T02:40:24;6.93;;;4.43;;
21611;SDS011;47005;52.292;13.452;2024-01-15T02:42:50;5.47;;;3.53;;
21611;SDS011;47005;52.292;13.452;2024-01-15T02:45:16;7.77;;;4.40;;
21611;SDS011;47005;52.292;13.452;2024-01-15T02:47:42;7.97;;;4.57;;
21611;SDS011;47005;52.292;13.452;2024-01-15T02:50:08;7.67;;;4.30;;
21611;SDS011;47005;52.292;13.452;2024-01-15T02:52:34;7.60;;;5.07;;
21611;SDS011;47005;52.292;13.452;2024-01-15T02:54:59;8.70;;;5.00;;
21611;SDS011;47005;52.292;13.452;2024-01-15T02:57:25;5.67;;;2.83;;
21611;SDS011;47005;52.292;13.452;2024-01-15T02:59:50;7.80;;;5.17;;
21611;SDS011;47005;52.292;13.452;2024-01-15T03:02:16;4.40;;;3.03;;
21611;SDS011;47005;52.292;13.452;2024-01-15T03:04:45;7.10;;;3.67;;
21611;SDS011;47005;52.292;13.452;2024-01-15T03:07:10;7.60;;;4.13;;
21611;SDS011;47005;52.292;13.452;2024-01-15T03:09:36;6.00;;;3.63;;
21611;SDS011;47005;52.292;13.452;2024-01-15T03:12:02;5.00;;;3.60;;
21611;SDS011;47005;52.292;13.452;2024-01-15T03:14:27;6.67;;;4.17;;
21611;SDS011;47005;52.292;13.452;2024-01-15T03:16:53;5.40;;;3.67;;
21611;SDS011;47005;52.292;13.452;2024-01-15T03:19:19;6.73;;;4.20;;
21611;SDS011;47005;52.292;13.452;2024-01-15T03:21:44;7.97;;;4.00;;
21611;SDS011;47005;52.292;13.452;2024-01-15T03:24:10;8.50;;;4.20;;
21611;SDS011;47005;52.292;13.452;2024-01-15T03:26:36;12.83;;;5.43;;
21611;SDS011;47005;52.292;13.452;2024-01-15T03:29:01;6.97;;;3.87;;
21611;SDS011;47005;52.292;13.452;2024-01-15T03:31:27;9.40;;;5.20;;
21611;SDS011;47005;52.292;13.452;2024-01-15T03:33:53;2.30;;;1.63;;
21611;SDS011;47005;52.292;13.452;2024-01-15T03:36:18;4.03;;;2.50;;
21611;SDS011;47005;52.292;13.452;2024-01-15T03:38:44;8.17;;;4.10;;
21611;SDS011;47005;52.292;13.452;2024-01-15T03:41:10;7.27;;;3.53;;
21611;SDS011;47005;52.292;13.452;2024-01-15T03:43:36;12.33;;;5.30;;
21611;SDS011;47005;52.292;13.452;2024-01-15T03:46:01;3.13;;;1.03;;
21611;SDS011;47005;52.292;13.452;2024-01-15T03:48:27;6.60;;;3.63;;
21611;SDS011;47005;52.292;13.452;2024-01-15T03:50:53;10.37;;;4.27;;
21611;SDS011;47005;52.292;13.452;2024-01-15T03:53:19;7.43;;;2.73;;
21611;SDS011;47005;52.292;13.452;2024-01-15T03:55:44;7.00;;;4.30;;
21611;SDS011;47005;52.292;13.452;2024-01-15T03:58:10;4.30;;;2.70;;
21611;SDS011;47005;52.292;13.452;2024-01-15T04:00:36;5.53;;;2.77;;
21611;SDS011;47005;52.292;13.452;2024-01-15T04:03:02;6.33;;;3.67;;
21611;SDS011;47005;52.292;13.452;2024-01-15T04:05:27;5.13;;;2.97;;
21611;SDS011;47005;52.292;13.452;2024-01-15T04:07:53;3.37;;;2.17;;
21611;SDS011;47005;52.292;13.452;2024-01-15T04:10:18;6.90;;;3.53;;
21611;SDS011;47005;52.292;13.452;2024-01-15T04:12:44;9.67;;;2.93;;
21611;SDS011;47005;52.292;13.452;2024-01-15T04:15:12;4.93;;;2.13;;
21611;SDS011;47005;52.292;13.452;2024-01-15T04:17:38;6.53;;;3.17;;
21611;SDS011;47005;52.292;13.452;2024-01-15T04:20:04;2.60;;;1.33;;
21611;SDS011;47005;52.292;13.452;2024-01-15T04:22:31;7.40;;;2.60;;
21611;SDS011;47005;52.292;13.452;2024-01-15T04:24:58;10.50;;;3.23;;
21611;SDS011;47005;52.292;13.452;2024-01-15T04:27:24;4.67;;;2.73;;
21611;SDS011;47005;52.292;13.452;2024-01-15T04:29:49;8.23;;;3.17;;
21611;SDS011;47005;52.292;13.452;2024-01-15T04:32:15;6.33;;;3.37;;
21611;SDS011;47005;52.292;13.452;2024-01-15T04:34:41;5.30;;;3.50;;
21611;SDS011;47005;52.292;13.452;2024-01-15T04:37:06;3.93;;;2.30;;
21611;SDS011;47005;52.292;13.452;2024-01-15T04:39:32;6.03;;;2.93;;
21611;SDS011;47005;52.292;13.452;2024-01-15T04:41:58;6.07;;;3.43;;
21611;SDS011;47005;52.292;13.452;2024-01-15T04:44:23;7.63;;;2.53;;
21611;SDS011;47005;52.292;13.452;2024-01-15T04:46:49;6.67;;;3.53;;
21611;SDS011;47005;52.292;13.452;2024-01-15T04:49:14;5.70;;;2.73;;
21611;SDS011;47005;52.292;13.452;2024-01-15T04:51:40;4.17;;;1.50;;
21611;SDS011;47005;52.292;13.452;2024-01-15T04:54:06;5.90;;;2.37;;
21611;SDS011;47005;52.292;13.452;2024-01-15T04:56:31;5.43;;;2.97;;
21611;SDS011;47005;52.292;13.452;2024-01-15T04:58:57;2.53;;;1.43;;
21611;SDS011;47005;52.292;13.452;2024-01-15T05:01:22;4.50;;;1.73;;
21611;SDS011;47005;52.292;13.452;2024-01-15T05:03:48;3.60;;;1.97;;
21611;SDS011;47005;52.292;13.452;2024-01-15T05:06:14;3.80;;;2.03;;
21611;SDS011;47005;52.292;13.452;2024-01-15T05:08:40;3.03;;;1.50;;
21611;SDS011;47005;52.292;13.452;2024-01-15T05:11:06;4.70;;;2.50;;
21611;SDS011;47005;52.292;13.452;2024-01-15T05:13:31;6.60;;;2.57;;
21611;SDS011;47005;52.292;13.452;2024-01-15T05:15:57;3.50;;;2.10;;
21611;SDS011;47005;52.292;13.452;2024-01-15T05:18:23;8.87;;;2.33;;
21611;SDS011;47005;52.292;13.452;2024-01-15T05:20:48;2.47;;;1.67;;
21611;SDS011;47005;52.292;13.452;2024-01-15T05:23:14;6.40;;;2.17;;
21611;SDS011;47005;52.292;13.452;2024-01-15T05:25:39;9.53;;;2.63;;
21611;SDS011;47005;52.292;13.452;2024-01-15T05:28:05;5.00;;;2.93;;
21611;SDS011;47005;52.292;13.452;2024-01-15T05:30:31;6.33;;;2.30;;
21611;SDS011;47005;52.292;13.452;2024-01-15T05:32:56;2.90;;;1.70;;
21611;SDS011;47005;52.292;13.452;2024-01-15T05:35:23;6.47;;;2.13;;
21611;SDS011;47005;52.292;13.452;2024-01-15T05:37:51;8.00;;;2.83;;
21611;SDS011;47005;52.292;13.452;2024-01-15T05:40:17;1.97;;;1.23;;
21611;SDS011;47005;52.292;13.452;2024-01-15T05:42:42;5.33;;;2.27;;
21611;SDS011;47005;52.292;13.452;2024-01-15T05:45:08;1.10;;;0.80;;
21611;SDS011;47005;52.292;13.452;2024-01-15T05:47:34;3.47;;;1.77;;
21611;SDS011;47005;52.292;13.452;2024-01-15T05:50:00;2.83;;;1.93;;
21611;SDS011;47005;52.292;13.452;2024-01-15T05:52:27;4.40;;;1.73;;
21611;SDS011;47005;52.292;13.452;2024-01-15T05:54:52;4.90;;;2.23;;
21611;SDS011;47005;52.292;13.452;2024-01-15T05:57:18;8.57;;;2.97;;
21611;SDS011;47005;52.292;13.452;2024-01-15T05:59:44;7.73;;;3.13;;
21611;SDS011;47005;52.292;13.452;2024-01-15T06:02:10;3.17;;;1.83;;
21611;SDS011;47005;52.292;13.452;2024-01-15T06:04:36;1.73;;;1.17;;
21611;SDS011;47005;52.292;13.452;2024-01-15T06:07:01;2.50;;;1.70;;
21611;SDS011;47005;52.292;13.452;2024-01-15T06:09:27;3.17;;;1.43;;
21611;SDS011;47005;52.292;13.452;2024-01-15T06:11:53;5.43;;;1.80;;
21611;SDS011;47005;52.292;13.452;2024-01-15T06:14:20;4.57;;;1.73;;
21611;SDS011;47005;52.292;13.452;2024-01-15T06:16:45;4.20;;;1.80;;
21611;SDS011;47005;52.292;13.452;2024-01-15T06:19:11;5.27;;;1.73;;
21611;SDS011;47005;52.292;13.452;2024-01-15T06:21:36;2.60;;;1.90;;
21611;SDS011;47005;52.292;13.452;2024-01-15T06:24:02;4.60;;;1.90;;
21611;SDS011;47005;52.292;13.452;2024-01-15T06:26:28;3.03;;;1.30;;
21611;SDS011;47005;52.292;13.452;2024-01-15T06:28:54;5.50;;;2.03;;
21611;SDS011;47005;52.292;13.452;2024-01-15T06:31:19;7.43;;;1.70;;
21611;SDS011;47005;52.292;13.452;2024-01-15T06:33:45;8.27;;;2.40;;
21611;SDS011;47005;52.292;13.452;2024-01-15T06:36:13;3.50;;;1.70;;
21611;SDS011;47005;52.292;13.452;2024-01-15T06:38:45;5.63;;;1.63;;
21611;SDS011;47005;52.292;13.452;2024-01-15T06:41:10;4.97;;;1.60;;
21611;SDS011;47005;52.292;13.452;2024-01-15T06:43:36;2.33;;;1.20;;
21611;SDS011;47005;52.292;13.452;2024-01-15T06:46:02;5.93;;;1.60;;
21611;SDS011;47005;52.292;13.452;2024-01-15T06:48:28;0.83;;;0.57;;
21611;SDS011;47005;52.292;13.452;2024-01-15T06:50:53;2.50;;;1.20;;
21611;SDS011;47005;52.292;13.452;2024-01-15T06:53:19;1.70;;;1.00;;
21611;SDS011;47005;52.292;13.452;2024-01-15T06:55:45;2.80;;;1.53;;
21611;SDS011;47005;52.292;13.452;2024-01-15T06:58:11;6.47;;;2.37;;
21611;SDS011;47005;52.292;13.452;2024-01-15T07:00:37;1.80;;;1.07;;
21611;SDS011;47005;52.292;13.452;2024-01-15T07:03:03;7.23;;;1.90;;
21611;SDS011;47005;52.292;13.452;2024-01-15T07:05:28;1.73;;;0.80;;
21611;SDS011;47005;52.292;13.452;2024-01-15T07:07:55;4.10;;;1.83;;
21611;SDS011;47005;52.292;13.452;2024-01-15T07:10:21;1.30;;;0.80;;
21611;SDS011;47005;52.292;13.452;2024-01-15T07:12:47;2.77;;;1.47;;
21611;SDS011;47005;52.292;13.452;2024-01-15T07:15:12;6.90;;;1.23;;
21611;SDS011;47005;52.292;13.452;2024-01-15T07:17:38;4.00;;;1.77;;
21611;SDS011;47005;52.292;13.452;2024-01-15T07:20:07;2.23;;;0.83;;
21611;SDS011;47005;52.292;13.452;2024-01-15T07:22:37;5.67;;;1.47;;
21611;SDS011;47005;52.292;13.452;2024-01-15T07:25:03;3.83;;;1.10;;
21611;SDS011;47005;52.292;13.452;2024-01-15T07:27:30;1.53;;;0.80;;
21611;SDS011;47005;52.292;13.452;2024-01-15T07:29:56;3.30;;;0.83;;
21611;SDS011;47005;52.292;13.452;2024-01-15T07:32:22;2.70;;;0.90;;
21611;SDS011;47005;52.292;13.452;2024-01-15T07:34:48;2.93;;;1.07;;
21611;SDS011;47005;52.292;13.452;2024-01-15T07:37:14;3.73;;;1.23;;
21611;SDS011;47005;52.292;13.452;2024-01-15T07:39:39;2.23;;;0.93;;
21611;SDS011;47005;52.292;13.452;2024-01-15T07:42:05;3.30;;;1.30;;
21611;SDS011;47005;52.292;13.452;2024-01-15T07:44:31;1.53;;;1.03;;
21611;SDS011;47005;52.292;13.452;2024-01-15T07:46:56;8.03;;;1.20;;
21611;SDS011;47005;52.292;13.452;2024-01-15T07:49:22;4.23;;;1.80;;
21611;SDS011;47005;52.292;13.452;2024-01-15T07:51:48;5.90;;;1.83;;
21611;SDS011;47005;52.292;13.452;2024-01-15T07:54:14;0.40;;;0.40;;
21611;SDS011;47005;52.292;13.452;2024-01-15T07:59:25;8.83;;;1.63;;
21611;SDS011;47005;52.292;13.452;2024-01-15T08:01:52;4.23;;;1.83;;
21611;SDS011;47005;52.292;13.452;2024-01-15T08:04:18;5.37;;;1.30;;
21611;SDS011;47005;52.292;13.452;2024-01-15T08:06:44;5.57;;;1.50;;
21611;SDS011;47005;52.292;13.452;2024-01-15T08:09:10;4.77;;;1.27;;
21611;SDS011;47005;52.292;13.452;2024-01-15T08:11:36;4.50;;;1.37;;
21611;SDS011;47005;52.292;13.452;2024-01-15T08:14:04;8.80;;;1.90;;
21611;SDS011;47005;52.292;13.452;2024-01-15T08:16:30;3.63;;;1.27;;
21611;SDS011;47005;52.292;13.452;2024-01-15T08:18:55;3.70;;;1.40;;
21611;SDS011;47005;52.292;13.452;2024-01-15T08:21:21;2.63;;;1.17;;
21611;SDS011;47005;52.292;13.452;2024-01-15T08:23:47;6.30;;;1.13;;
21611;SDS011;47005;52.292;13.452;2024-01-15T08:26:12;3.50;;;1.47;;
21611;SDS011;47005;52.292;13.452;2024-01-15T08:28:38;3.07;;;1.33;;
21611;SDS011;47005;52.292;13.452;2024-01-15T08:31:04;8.63;;;1.90;;
21611;SDS011;47005;52.292;13.452;2024-01-15T08:33:29;7.47;;;1.53;;
21611;SDS011;47005;52.292;13.452;2024-01-15T08:35:55;1.20;;;1.10;;
21611;SDS011;47005;52.292;13.452;2024-01-15T08:38:21;3.20;;;1.37;;
21611;SDS011;47005;52.292;13.452;2024-01-15T08:40:46;4.40;;;1.40;;
21611;SDS011;47005;52.292;13.452;2024-01-15T08:43:13;3.63;;;1.13;;
21611;SDS011;47005;52.292;13.452;2024-01-15T08:45:38;1.67;;;0.87;;
21611;SDS011;47005;52.292;13.452;2024-01-15T08:48:04;7.30;;;1.30;;
21611;SDS011;47005;52.292;13.452;2024-01-15T08:50:30;1.57;;;1.07;;
21611;SDS011;47005;52.292;13.452;2024-01-15T08:52:57;4.10;;;0.73;;
21611;SDS011;47005;52.292;13.452;2024-01-15T08:55:23;5.83;;;1.20;;
21611;SDS011;47005;52.292;13.452;2024-01-15T08:57:48;2.13;;;1.53;;
21611;SDS011;47005;52.292;13.452;2024-01-15T09:00:14;4.10;;;1.07;;
21611;SDS011;47005;52.292;13.452;2024-01-15T09:02:40;4.63;;;1.10;;
21611;SDS011;47005;52.292;13.452;2024-01-15T09:05:07;2.70;;;1.60;;
21611;SDS011;47005;52.292;13.452;2024-01-15T09:07:32;1.83;;;0.77;;
21611;SDS011;47005;52.292;13.452;2024-01-15T09:09:58;3.97;;;1.37;;
21611;SDS011;47005;52.292;13.452;2024-01-15T09:12:24;5.47;;;1.90;;
21611;SDS011;47005;52.292;13.452;2024-01-15T09:14:50;1.97;;;1.00;;
21611;SDS011;47005;52.292;13.452;2024-01-15T09:17:17;3.97;;;1.20;;
21611;SDS011;47005;52.292;13.452;2024-01-15T09:19:43;2.50;;;1.67;;
21611;SDS011;47005;52.292;13.452;2024-01-15T09:22:09;2.80;;;1.83;;
21611;SDS011;47005;52.292;13.452;2024-01-15T09:24:35;8.63;;;1.83;;
21611;SDS011;47005;52.292;13.452;2024-01-15T09:27:00;1.40;;;0.90;;
21611;SDS011;47005;52.292;13.452;2024-01-15T09:29:27;1.70;;;0.97;;
21611;SDS011;47005;52.292;13.452;2024-01-15T09:31:53;7.47;;;1.20;;
21611;SDS011;47005;52.292;13.452;2024-01-15T09:34:19;9.00;;;2.77;;
21611;SDS011;47005;52.292;13.452;2024-01-15T09:36:44;2.43;;;1.20;;
21611;SDS011;47005;52.292;13.452;2024-01-15T09:39:10;12.33;;;1.20;;
21611;SDS011;47005;52.292;13.452;2024-01-15T09:41:39;1.30;;;0.83;;
21611;SDS011;47005;52.292;13.452;2024-01-15T09:44:05;2.23;;;1.37;;
21611;SDS011;47005;52.292;13.452;2024-01-15T09:46:33;1.97;;;1.40;;
21611;SDS011;47005;52.292;13.452;2024-01-15T09:48:59;1.83;;;1.13;;
21611;SDS011;47005;52.292;13.452;2024-01-15T09:51:27;5.03;;;2.10;;
21611;SDS011;47005;52.292;13.452;2024-01-15T09:53:56;3.77;;;1.83;;
21611;SDS011;47005;52.292;13.452;2024-01-15T09:56:23;2.93;;;1.57;;
21611;SDS011;47005;52.292;13.452;2024-01-15T09:58:48;2.30;;;1.07;;
21611;SDS011;47005;52.292;13.452;2024-01-15T10:01:16;0.60;;;0.60;;
21611;SDS011;47005;52.292;13.452;2024-01-15T10:03:42;4.23;;;1.30;;
21611;SDS011;47005;52.292;13.452;2024-01-15T10:06:08;3.07;;;2.30;;
21611;SDS011;47005;52.292;13.452;2024-01-15T10:08:36;3.70;;;1.93;;
21611;SDS011;47005;52.292;13.452;2024-01-15T10:11:02;1.33;;;0.80;;
21611;SDS011;47005;52.292;13.452;2024-01-15T10:13:30;7.77;;;1.80;;
21611;SDS011;47005;52.292;13.452;2024-01-15T10:15:56;4.67;;;2.07;;
21611;SDS011;47005;52.292;13.452;2024-01-15T10:18:23;4.63;;;1.47;;
21611;SDS011;47005;52.292;13.452;2024-01-15T10:20:48;4.30;;;1.17;;
21611;SDS011;47005;52.292;13.452;2024-01-15T10:23:14;2.97;;;1.77;;
21611;SDS011;47005;52.292;13.452;2024-01-15T10:25:43;2.23;;;1.50;;
21611;SDS011;47005;52.292;13.452;2024-01-15T10:28:09;4.00;;;2.03;;
21611;SDS011;47005;52.292;13.452;2024-01-15T10:30:35;4.50;;;1.30;;
21611;SDS011;47005;52.292;13.452;2024-01-15T10:33:01;6.67;;;1.90;;
21611;SDS011;47005;52.292;13.452;2024-01-15T10:35:31;3.67;;;1.30;;
21611;SDS011;47005;52.292;13.452;2024-01-15T10:37:59;4.37;;;1.47;;
21611;SDS011;47005;52.292;13.452;2024-01-15T10:40:25;3.93;;;1.60;;
21611;SDS011;47005;52.292;13.452;2024-01-15T10:42:51;1.90;;;1.57;;
21611;SDS011;47005;52.292;13.452;2024-01-15T10:45:17;10.47;;;1.90;;
21611;SDS011;47005;52.292;13.452;2024-01-15T10:47:43;1.80;;;1.30;;
21611;SDS011;47005;52.292;13.452;2024-01-15T10:50:09;1.73;;;1.20;;
21611;SDS011;47005;52.292;13.452;2024-01-15T10:52:36;2.47;;;1.63;;
21611;SDS011;47005;52.292;13.452;2024-01-15T10:55:03;4.40;;;1.43;;
21611;SDS011;47005;52.292;13.452;2024-01-15T10:57:29;3.90;;;1.77;;
21611;SDS011;47005;52.292;13.452;2024-01-15T10:59:55;6.90;;;1.97;;
21611;SDS011;47005;52.292;13.452;2024-01-15T11:02:21;4.67;;;2.03;;
21611;SDS011;47005;52.292;13.452;2024-01-15T11:04:47;0.37;;;0.37;;
21611;SDS011;47005;52.292;13.452;2024-01-15T11:07:13;3.90;;;2.43;;
21611;SDS011;47005;52.292;13.452;2024-01-15T11:09:39;1.77;;;1.43;;
21611;SDS011;47005;52.292;13.452;2024-01-15T11:12:09;5.10;;;1.87;;
21611;SDS011;47005;52.292;13.452;2024-01-15T11:14:40;1.13;;;0.67;;
21611;SDS011;47005;52.292;13.452;2024-01-15T11:17:13;11.23;;;1.97;;
21611;SDS011;47005;52.292;13.452;2024-01-15T11:19:44;2.57;;;1.33;;
21611;SDS011;47005;52.292;13.452;2024-01-15T11:22:46;1.07;;;0.77;;
21611;SDS011;47005;52.292;13.452;2024-01-15T11:25:18;0.80;;;0.80;;
21611;SDS011;47005;52.292;13.452;2024-01-15T11:27:46;1.80;;;1.13;;
21611;SDS011;47005;52.292;13.452;2024-01-15T11:30:16;1.67;;;1.07;;
21611;SDS011;47005;52.292;13.452;2024-01-15T11:32:42;0.50;;;0.50;;
21611;SDS011;47005;52.292;13.452;2024-01-15T11:35:08;1.30;;;0.60;;
21611;SDS011;47005;52.292;13.452;2024-01-15T11:40:19;1.70;;;1.30;;
21611;SDS011;47005;52.292;13.452;2024-01-15T11:42:46;4.40;;;1.63;;
21611;SDS011;47005;52.292;13.452;2024-01-15T11:45:13;5.67;;;1.67;;
21611;SDS011;47005;52.292;13.452;2024-01-15T11:50:49;1.67;;;1.03;;
21611;SDS011;47005;52.292;13.452;2024-01-15T11:56:06;3.00;;;1.67;;
21611;SDS011;47005;52.292;13.452;2024-01-15T11:58:47;4.33;;;2.20;;
21611;SDS011;47005;52.292;13.452;2024-01-15T12:01:12;2.13;;;1.33;;
21611;SDS011;47005;52.292;13.452;2024-01-15T12:03:38;2.40;;;1.50;;
21611;SDS011;47005;52.292;13.452;2024-01-15T12:06:07;2.50;;;1.27;;
21611;SDS011;47005;52.292;13.452;2024-01-15T12:08:34;3.23;;;1.50;;
21611;SDS011;47005;52.292;13.452;2024-01-15T12:11:00;3.07;;;1.73;;
21611;SDS011;47005;52.292;13.452;2024-01-15T12:13:30;1.73;;;1.10;;
21611;SDS011;47005;52.292;13.452;2024-01-15T12:15:56;2.17;;;1.27;;
21611;SDS011;47005;52.292;13.452;2024-01-15T12:18:22;4.03;;;1.47;;
21611;SDS011;47005;52.292;13.452;2024-01-15T12:20:47;1.60;;;1.30;;
21611;SDS011;47005;52.292;13.452;2024-01-15T12:23:13;2.67;;;1.40;;
21611;SDS011;47005;52.292;13.452;2024-01-15T12:25:40;2.47;;;1.50;;
21611;SDS011;47005;52.292;13.452;2024-01-15T12:28:05;0.83;;;0.70;;
21611;SDS011;47005;52.292;13.452;2024-01-15T12:30:32;2.57;;;1.70;;
21611;SDS011;47005;52.292;13.452;2024-01-15T12:33:05;2.23;;;1.30;;
21611;SDS011;47005;52.292;13.452;2024-01-15T12:35:35;2.27;;;1.17;;
21611;SDS011;47005;52.292;13.452;2024-01-15T12:38:01;1.67;;;1.27;;
21611;SDS011;47005;52.292;13.452;2024-01-15T12:40:27;0.70;;;0.70;;
21611;SDS011;47005;52.292;13.452;2024-01-15T12:42:53;0.67;;;0.67;;
21611;SDS011;47005;52.292;13.452;2024-01-15T12:45:19;2.17;;;1.20;;
21611;SDS011;47005;52.292;13.452;2024-01-15T12:47:45;3.03;;;1.20;;
21611;SDS011;47005;52.292;13.452;2024-01-15T12:50:11;1.33;;;0.93;;
21611;SDS011;47005;52.292;13.452;2024-01-15T12:52:39;3.40;;;1.40;;
21611;SDS011;47005;52.292;13.452;2024-01-15T12:55:07;3.03;;;1.47;;
21611;SDS011;47005;52.292;13.452;2024-01-15T12:57:36;1.30;;;0.90;;
21611;SDS011;47005;52.292;13.452;2024-01-15T13:00:03;5.40;;;1.87;;
21611;SDS011;47005;52.292;13.452;2024-01-15T13:02:36;1.13;;;0.80;;
21611;SDS011;47005;52.292;13.452;2024-01-15T13:05:03;1.70;;;1.20;;
21611;SDS011;47005;52.292;13.452;2024-01-15T13:07:29;2.00;;;1.13;;
21611;SDS011;47005;52.292;13.452;2024-01-15T13:09:55;1.70;;;1.17;;
21611;SDS011;47005;52.292;13.452;2024-01-15T13:12:20;0.30;;;0.30;;
21611;SDS011;47005;52.292;13.452;2024-01-15T13:14:47;1.10;;;0.80;;
21611;SDS011;47005;52.292;13.452;2024-01-15T13:17:13;2.63;;;1.33;;
21611;SDS011;47005;52.292;13.452;2024-01-15T13:19:42;1.60;;;0.50;;
21611;SDS011;47005;52.292;13.452;2024-01-15T13:22:07;2.60;;;1.13;;
21611;SDS011;47005;52.292;13.452;2024-01-15T13:24:34;1.43;;;1.33;;
21611;SDS011;47005;52.292;13.452;2024-01-15T13:27:01;2.77;;;1.03;;
21611;SDS011;47005;52.292;13.452;2024-01-15T13:29:27;1.63;;;1.27;;
21611;SDS011;47005;52.292;13.452;2024-01-15T13:31:53;1.47;;;0.93;;
21611;SDS011;47005;52.292;13.452;2024-01-15T13:34:19;3.80;;;1.37;;
21611;SDS011;47005;52.292;13.452;2024-01-15T13:36:44;0.90;;;0.70;;
21611;SDS011;47005;52.292;13.452;2024-01-15T13:39:10;4.03;;;1.63;;
21611;SDS011;47005;52.292;13.452;2024-01-15T13:41:36;0.93;;;0.50;;
21611;SDS011;47005;52.292;13.452;2024-01-15T13:44:01;0.70;;;0.57;;
21611;SDS011;47005;52.292;13.452;2024-01-15T13:46:28;2.43;;;1.57;;
21611;SDS011;47005;52.292;13.452;2024-01-15T13:48:58;1.80;;;1.47;;
21611;SDS011;47005;52.292;13.452;2024-01-15T13:51:24;1.17;;;0.90;;
21611;SDS011;47005;52.292;13.452;2024-01-15T13:53:50;2.53;;;1.37;;
21611;SDS011;47005;52.292;13.452;2024-01-15T13:56:16;2.47;;;1.30;;
21611;SDS011;47005;52.292;13.452;2024-01-15T13:58:42;4.77;;;1.37;;
21611;SDS011;47005;52.292;13.452;2024-01-15T14:01:08;4.70;;;1.40;;
21611;SDS011;47005;52.292;13.452;2024-01-15T14:03:34;3.00;;;1.23;;
21611;SDS011;47005;52.292;13.452;2024-01-15T14:06:00;2.10;;;0.97;;
21611;SDS011;47005;52.292;13.452;2024-01-15T14:08:28;3.73;;;1.70;;
21611;SDS011;47005;52.292;13.452;2024-01-15T14:10:53;1.37;;;0.83;;
21611;SDS011;47005;52.292;13.452;2024-01-15T14:13:21;1.07;;;0.77;;
21611;SDS011;47005;52.292;13.452;2024-01-15T14:15:47;4.63;;;1.93;;
21611;SDS011;47005;52.292;13.452;2024-01-15T14:18:14;6.27;;;1.43;;
21611;SDS011;47005;52.292;13.452;2024-01-15T14:20:41;2.67;;;1.57;;
21611;SDS011;47005;52.292;13.452;2024-01-15T14:23:07;4.27;;;1.50;;
21611;SDS011;47005;52.292;13.452;2024-01-15T14:25:33;2.60;;;1.10;;
21611;SDS011;47005;52.292;13.452;2024-01-15T14:27:59;6.27;;;1.23;;
21611;SDS011;47005;52.292;13.452;2024-01-15T14:30:25;4.27;;;1.73;;
21611;SDS011;47005;52.292;13.452;2024-01-15T14:32:50;8.23;;;1.23;;
21611;SDS011;47005;52.292;13.452;2024-01-15T14:35:16;3.77;;;1.33;;
21611;SDS011;47005;52.292;13.452;2024-01-15T14:37:42;6.10;;;1.33;;
21611;SDS011;47005;52.292;13.452;2024-01-15T14:40:07;4.33;;;1.50;;